Time;durP1;ratioP1;P1;durP2;ratioP2;P2;SDS_P1;SDS_P2;PMS_P1;PMS_P2;Temp;Humidity;BMP_temperature;BMP_pressure;BME280_temperature;BME280_humidity;BME280_pressure;Samples;Min_cycle;Max_cycle;Signal;HPM_P1;HPM_P2
2023/09/18 00:02:25;;;;;;;18.67;12.77;;;15.50;99.90;;;;;;5044293;28;20054;-82
2023/09/18 00:04:51;;;;;;;19.15;12.38;;;15.50;99.90;;;;;;5046939;28;20125;-81
2023/09/18 00:07:17;;;;;;;14.98;10.75;;;15.40;99.90;;;;;;5028033;28;20036;-82
2023/09/18 00:09:43;;;;;;;19.80;11.02;;;15.40;99.90;;;;;;5040572;28;20051;-81
2023/09/18 00:12:09;;;;;;;20.45;12.30;;;15.40;99.90;;;;;;5044979;28;20070;-81
2023/09/18 00:14:35;;;;;;;17.50;11.80;;;15.40;99.90;;;;;;5044709;28;20174;-81
2023/09/18 00:17:01;;;;;;;20.23;12.13;;;15.30;99.90;;;;;;5048273;28;20067;-82
2023/09/18 00:19:27;;;;;;;15.93;11.48;;;15.30;99.90;;;;;;5047144;28;20505;-81
2023/09/18 00:21:54;;;;;;;14.07;10.23;;;15.30;99.90;;;;;;5031430;28;20036;-82
2023/09/18 00:24:20;;;;;;;17.00;11.23;;;15.20;99.90;;;;;;5036806;28;20134;-81
2023/09/18 00:26:47;;;;;;;18.00;11.57;;;15.20;99.90;;;;;;5047354;28;20169;-81
2023/09/18 00:29:13;;;;;;;15.95;11.50;;;15.20;99.90;;;;;;5046654;28;20045;-81
2023/09/18 00:31:39;;;;;;;19.85;11.07;;;15.20;99.90;;;;;;5024565;28;20122;-81
2023/09/18 00:34:05;;;;;;;14.98;10.05;;;15.30;99.90;;;;;;5041087;28;20068;-81
2023/09/18 00:36:30;;;;;;;14.48;9.82;;;15.30;99.90;;;;;;5045223;28;20113;-81
2023/09/18 00:38:56;;;;;;;15.52;10.38;;;15.30;99.90;;;;;;5058475;28;20850;-82
2023/09/18 00:41:22;;;;;;;13.05;10.05;;;15.40;99.90;;;;;;5035228;28;20040;-81
2023/09/18 00:43:47;;;;;;;12.05;9.07;;;15.40;99.90;;;;;;5049043;28;20502;-81
2023/09/18 00:46:13;;;;;;;11.25;8.73;;;15.40;99.90;;;;;;5045353;28;20109;-81
2023/09/18 00:48:39;;;;;;;11.38;8.43;;;15.40;99.90;;;;;;5030375;28;20377;-81
2023/09/18 00:51:05;;;;;;;10.98;7.70;;;15.40;99.90;;;;;;5049813;28;20045;-81
2023/09/18 00:53:31;;;;;;;9.90;7.22;;;15.50;99.90;;;;;;5028084;28;20058;-81
2023/09/18 00:56:00;;;;;;;9.65;7.70;;;15.40;99.90;;;;;;5045028;28;20044;-81
2023/09/18 00:58:26;;;;;;;11.25;8.80;;;15.50;99.90;;;;;;5046840;28;20124;-81
2023/09/18 01:00:52;;;;;;;12.27;8.48;;;15.50;99.90;;;;;;5043158;28;20049;-81
2023/09/18 01:03:20;;;;;;;10.85;8.18;;;15.50;99.90;;;;;;5049006;28;20048;-81
2023/09/18 01:05:46;;;;;;;10.30;8.60;;;15.50;99.90;;;;;;5020788;28;20040;-81
2023/09/18 01:08:12;;;;;;;16.95;9.40;;;15.50;99.90;;;;;;5031566;28;20041;-81
2023/09/18 01:11:05;;;;;;;13.07;10.02;;;15.50;99.90;;;;;;5035830;28;20056;-81
2023/09/18 01:13:38;;;;;;;13.13;9.95;;;15.50;99.90;;;;;;5052382;28;20045;-81
2023/09/18 01:16:17;;;;;;;15.18;10.90;;;15.50;99.90;;;;;;5057041;28;20045;-81
2023/09/18 01:18:50;;;;;;;15.80;11.23;;;15.40;99.90;;;;;;5049144;28;20049;-81
2023/09/18 01:21:18;;;;;;;17.40;11.15;;;15.40;99.90;;;;;;5045830;28;20423;-81
2023/09/18 01:23:43;;;;;;;15.00;11.32;;;15.40;99.90;;;;;;5043412;28;20033;-81
2023/09/18 01:26:09;;;;;;;17.80;12.55;;;15.40;99.90;;;;;;5048514;28;20155;-81
2023/09/18 01:28:35;;;;;;;20.00;13.23;;;15.40;99.90;;;;;;5052360;28;20451;-81
2023/09/18 01:31:00;;;;;;;26.45;16.90;;;15.40;99.90;;;;;;5051253;28;20045;-82
2023/09/18 01:33:28;;;;;;;28.13;18.88;;;15.50;99.90;;;;;;5043731;28;20048;-82
2023/09/18 01:35:55;;;;;;;26.48;19.77;;;15.50;99.90;;;;;;5033463;28;20044;-81
2023/09/18 01:38:23;;;;;;;28.38;20.17;;;15.70;99.90;;;;;;5052947;28;20101;-81
2023/09/18 01:40:49;;;;;;;29.92;20.13;;;15.80;99.90;;;;;;5045329;28;20049;-81
2023/09/18 01:43:15;;;;;;;30.02;20.88;;;15.80;99.90;;;;;;5034074;28;20486;-81
2023/09/18 01:45:42;;;;;;;30.65;20.35;;;15.90;99.90;;;;;;5044408;28;20041;-81
2023/09/18 01:48:08;;;;;;;32.17;20.67;;;16.00;99.90;;;;;;5046861;28;20045;-81
2023/09/18 01:50:33;;;;;;;34.53;22.63;;;16.10;99.90;;;;;;5033235;28;20050;-81
2023/09/18 01:52:59;;;;;;;31.05;21.08;;;16.20;99.90;;;;;;5046004;28;20422;-80
2023/09/18 01:55:25;;;;;;;29.98;20.42;;;16.20;99.90;;;;;;5046296;28;20040;-81
2023/09/18 01:57:50;;;;;;;29.17;20.65;;;16.20;99.90;;;;;;5051317;28;20120;-81
2023/09/18 02:00:16;;;;;;;29.83;21.13;;;16.30;99.90;;;;;;5030739;28;20580;-81
2023/09/18 02:02:42;;;;;;;30.42;20.15;;;16.30;99.90;;;;;;5029483;28;20050;-81
2023/09/18 02:05:07;;;;;;;28.80;20.42;;;16.30;99.90;;;;;;5051361;28;20107;-81
2023/09/18 02:07:33;;;;;;;26.10;18.75;;;16.30;99.90;;;;;;5050050;28;20041;-81
2023/09/18 02:09:59;;;;;;;25.13;18.05;;;16.30;99.90;;;;;;5033546;28;20357;-81
2023/09/18 02:12:25;;;;;;;25.88;18.65;;;16.40;99.90;;;;;;5046507;28;20446;-80
2023/09/18 02:14:50;;;;;;;26.02;17.92;;;16.30;99.90;;;;;;5026552;28;20189;-81
2023/09/18 02:17:16;;;;;;;25.40;17.40;;;16.30;99.90;;;;;;5053959;28;20044;-82
2023/09/18 02:19:42;;;;;;;26.75;18.73;;;16.40;99.90;;;;;;5055313;28;20048;-81
2023/09/18 02:22:08;;;;;;;25.70;17.90;;;16.40;99.90;;;;;;5047098;28;20041;-81
2023/09/18 02:24:34;;;;;;;24.55;17.15;;;16.50;99.90;;;;;;5039065;28;20032;-81
2023/09/18 02:26:59;;;;;;;24.00;17.00;;;16.60;99.90;;;;;;5047968;28;20034;-82
2023/09/18 02:29:25;;;;;;;25.13;17.63;;;16.60;99.90;;;;;;5039839;28;20063;-81
2023/09/18 02:31:51;;;;;;;24.02;17.10;;;16.60;99.90;;;;;;5049260;28;20045;-82
2023/09/18 02:34:19;;;;;;;22.15;15.63;;;16.60;99.90;;;;;;5045856;28;20581;-81
2023/09/18 02:36:44;;;;;;;23.73;16.80;;;16.60;99.90;;;;;;5050248;28;20052;-81
2023/09/18 02:39:10;;;;;;;25.75;15.80;;;16.60;99.90;;;;;;5055694;28;20048;-81
2023/09/18 02:41:35;;;;;;;22.45;15.68;;;16.60;99.90;;;;;;5065696;28;20068;-81
2023/09/18 02:44:01;;;;;;;25.67;16.55;;;16.60;99.90;;;;;;5059233;28;20641;-82
2023/09/18 02:46:27;;;;;;;18.15;14.30;;;16.60;99.90;;;;;;5042170;28;20045;-82
2023/09/18 02:48:52;;;;;;;20.23;14.25;;;16.60;99.90;;;;;;5048619;28;20028;-81
2023/09/18 02:51:18;;;;;;;18.23;14.35;;;16.60;99.90;;;;;;5054804;28;20127;-81
2023/09/18 02:53:43;;;;;;;18.67;14.18;;;16.60;99.90;;;;;;5026537;28;20064;-81
2023/09/18 02:56:09;;;;;;;20.00;15.38;;;16.60;99.90;;;;;;5033607;28;20523;-81
2023/09/18 02:58:35;;;;;;;18.25;14.00;;;16.60;99.90;;;;;;5051922;28;20048;-81
2023/09/18 03:01:02;;;;;;;20.30;14.02;;;16.70;99.90;;;;;;5032750;28;20048;-81
2023/09/18 03:03:28;;;;;;;20.92;14.60;;;16.70;99.90;;;;;;5038394;28;20124;-81
2023/09/18 03:06:03;;;;;;;19.08;13.88;;;16.60;99.90;;;;;;5025110;28;20407;-81
2023/09/18 03:08:29;;;;;;;19.20;14.43;;;16.70;99.90;;;;;;5041594;28;20076;-81
2023/09/18 03:10:54;;;;;;;18.25;13.45;;;16.70;99.90;;;;;;5044653;28;20541;-81
2023/09/18 03:13:21;;;;;;;21.45;13.65;;;16.70;99.90;;;;;;5029367;28;20041;-82
2023/09/18 03:15:47;;;;;;;19.45;13.13;;;16.70;99.90;;;;;;5037713;28;20060;-81
2023/09/18 03:18:13;;;;;;;19.33;13.63;;;16.70;99.90;;;;;;5042651;28;20067;-81
2023/09/18 03:20:39;;;;;;;21.02;14.45;;;16.70;99.90;;;;;;5029387;28;20093;-81
2023/09/18 03:23:04;;;;;;;19.42;13.73;;;16.70;99.90;;;;;;5033823;28;20049;-81
2023/09/18 03:25:30;;;;;;;18.23;13.23;;;16.70;99.90;;;;;;5039971;28;20052;-81
2023/09/18 03:27:57;;;;;;;20.65;12.70;;;16.70;99.90;;;;;;5035332;28;20039;-81
2023/09/18 03:30:23;;;;;;;18.52;13.20;;;16.70;99.90;;;;;;5046927;28;20051;-81
2023/09/18 03:32:50;;;;;;;18.10;13.48;;;16.60;99.90;;;;;;5050355;28;20049;-81
2023/09/18 03:35:20;;;;;;;17.92;11.85;;;16.70;99.90;;;;;;5045370;28;20049;-81
2023/09/18 03:37:56;;;;;;;18.30;12.63;;;16.70;99.90;;;;;;5057953;28;20058;-81
2023/09/18 03:40:22;;;;;;;;;;;16.70;99.90;;;;;;5040981;28;20124;-81
2023/09/18 03:42:48;;;;;;;18.23;12.68;;;16.70;99.90;;;;;;5049933;28;19917;-82
2023/09/18 03:45:14;;;;;;;14.43;12.07;;;16.60;99.90;;;;;;5049490;28;20078;-81
2023/09/18 03:47:42;;;;;;;17.90;12.25;;;16.60;99.90;;;;;;5035450;28;20076;-81
2023/09/18 03:50:11;;;;;;;15.75;11.68;;;16.60;99.90;;;;;;5035472;28;20044;-81
2023/09/18 03:52:38;;;;;;;16.58;11.65;;;16.60;99.90;;;;;;5061882;28;20487;-81
2023/09/18 03:55:05;;;;;;;16.35;11.85;;;16.70;99.90;;;;;;5043316;28;20051;-81
2023/09/18 03:57:30;;;;;;;14.85;11.88;;;16.70;99.90;;;;;;5039669;28;20076;-81
2023/09/18 03:59:56;;;;;;;15.15;12.05;;;16.80;99.90;;;;;;5040212;28;20533;-81
2023/09/18 04:02:24;;;;;;;13.07;10.63;;;16.80;99.90;;;;;;5047394;28;20043;-81
2023/09/18 04:04:50;;;;;;;14.48;11.20;;;16.90;99.90;;;;;;5064749;28;20051;-80
2023/09/18 04:07:16;;;;;;;14.52;11.35;;;16.80;99.90;;;;;;5029430;28;20032;-81
2023/09/18 04:09:42;;;;;;;13.05;10.48;;;16.90;99.90;;;;;;5025837;28;20177;-82
2023/09/18 04:12:09;;;;;;;16.83;11.05;;;16.90;99.90;;;;;;5049009;28;20506;-81
2023/09/18 04:14:35;;;;;;;16.00;10.20;;;16.90;99.90;;;;;;5053068;28;20082;-80
2023/09/18 04:17:01;;;;;;;18.05;10.77;;;16.80;99.90;;;;;;5041223;28;20047;-80
2023/09/18 04:19:27;;;;;;;15.35;9.65;;;16.80;99.90;;;;;;5041389;28;20072;-80
2023/09/18 04:21:53;;;;;;;13.75;9.32;;;16.90;99.90;;;;;;5025348;28;20249;-81
2023/09/18 04:24:19;;;;;;;19.23;9.60;;;16.80;99.90;;;;;;5042317;28;20048;-81
2023/09/18 04:26:45;;;;;;;12.85;9.82;;;16.90;99.90;;;;;;5046311;28;20097;-81
2023/09/18 04:29:10;;;;;;;16.70;9.80;;;16.80;99.90;;;;;;5046798;28;20045;-81
2023/09/18 04:31:36;;;;;;;13.10;9.18;;;16.80;99.90;;;;;;5042827;28;20127;-81
2023/09/18 04:34:02;;;;;;;12.93;9.57;;;16.90;99.90;;;;;;5046182;28;20670;-81
2023/09/18 04:36:28;;;;;;;13.00;9.55;;;16.90;99.90;;;;;;5046475;28;20435;-81
2023/09/18 04:38:54;;;;;;;12.65;9.73;;;16.90;99.90;;;;;;5049108;28;20078;-81
2023/09/18 04:41:19;;;;;;;14.90;10.23;;;17.00;99.90;;;;;;5049732;28;20126;-81
2023/09/18 04:43:45;;;;;;;14.13;10.20;;;17.10;99.90;;;;;;5057346;28;20040;-81
2023/09/18 04:46:11;;;;;;;13.60;10.40;;;17.10;99.90;;;;;;5042677;28;20052;-81
2023/09/18 04:48:36;;;;;;;19.17;9.40;;;17.10;99.90;;;;;;5031740;28;20052;-81
2023/09/18 04:51:03;;;;;;;14.13;10.38;;;17.20;99.90;;;;;;5038970;28;20040;-82
2023/09/18 04:53:30;;;;;;;15.43;9.80;;;17.20;99.90;;;;;;5061678;28;20068;-82
2023/09/18 04:55:56;;;;;;;12.57;9.98;;;17.20;99.90;;;;;;5045737;28;20040;-82
2023/09/18 04:58:22;;;;;;;13.75;9.32;;;17.20;99.90;;;;;;5052580;28;20418;-82
2023/09/18 05:00:54;;;;;;;11.70;8.98;;;17.20;99.90;;;;;;5045761;28;20048;-80
2023/09/18 05:03:21;;;;;;;12.95;9.48;;;17.20;99.90;;;;;;5034316;28;20047;-80
2023/09/18 05:05:46;;;;;;;13.95;9.90;;;17.20;99.90;;;;;;5028749;28;20036;-81
2023/09/18 05:08:12;;;;;;;13.35;9.95;;;17.30;99.90;;;;;;5044789;28;20774;-81
2023/09/18 05:10:38;;;;;;;11.90;9.02;;;17.30;99.90;;;;;;5025872;28;20070;-81
2023/09/18 05:13:04;;;;;;;13.13;9.27;;;17.30;99.90;;;;;;5046829;28;20043;-81
2023/09/18 05:15:30;;;;;;;13.93;9.88;;;17.30;99.90;;;;;;5052598;28;20059;-81
2023/09/18 05:17:57;;;;;;;11.82;8.90;;;17.40;99.90;;;;;;5044420;28;20041;-81
2023/09/18 05:20:28;;;;;;;10.55;8.63;;;17.40;99.90;;;;;;5025507;28;20051;-80
2023/09/18 05:22:55;;;;;;;14.52;8.77;;;17.40;99.90;;;;;;5049395;28;20482;-81
2023/09/18 05:25:22;;;;;;;13.93;9.40;;;17.40;99.90;;;;;;5052633;28;20035;-81
2023/09/18 05:27:54;;;;;;;12.13;9.35;;;17.50;99.90;;;;;;5053937;28;20482;-80
2023/09/18 05:30:23;;;;;;;15.50;8.40;;;17.50;99.90;;;;;;5054384;28;20052;-81
2023/09/18 05:32:49;;;;;;;12.20;8.52;;;17.50;99.90;;;;;;5051138;28;20051;-82
2023/09/18 05:35:15;;;;;;;10.30;8.13;;;17.50;99.90;;;;;;5063078;28;20052;-81
2023/09/18 05:37:41;;;;;;;12.73;9.00;;;17.50;99.90;;;;;;5044244;28;20045;-81
2023/09/18 05:40:09;;;;;;;10.10;7.47;;;17.40;99.90;;;;;;5060632;28;20131;-81
2023/09/18 05:42:36;;;;;;;15.45;7.78;;;17.50;99.90;;;;;;5053055;28;20044;-82
2023/09/18 05:45:04;;;;;;;12.23;8.63;;;17.50;99.90;;;;;;5031828;28;20402;-81
2023/09/18 05:47:31;;;;;;;13.60;8.00;;;17.60;99.90;;;;;;5046003;28;20048;-82
2023/09/18 05:49:57;;;;;;;12.15;7.65;;;17.60;99.90;;;;;;5065921;28;20675;-82
2023/09/18 05:52:23;;;;;;;11.35;7.93;;;17.60;99.90;;;;;;5043489;28;20040;-82
2023/09/18 05:54:49;;;;;;;13.52;7.53;;;17.60;99.90;;;;;;5059950;28;20068;-82
2023/09/18 05:57:16;;;;;;;11.93;7.25;;;17.70;99.90;;;;;;5025995;28;20048;-81
2023/09/18 05:59:43;;;;;;;11.75;7.25;;;17.60;99.90;;;;;;5064573;28;20110;-82
2023/09/18 06:02:09;;;;;;;9.73;7.32;;;17.80;99.90;;;;;;5026387;28;20664;-82
2023/09/18 06:04:36;;;;;;;11.32;7.05;;;17.70;99.90;;;;;;5049270;28;20060;-81
2023/09/18 06:07:03;;;;;;;11.95;7.20;;;17.80;99.90;;;;;;5049120;28;20044;-82
2023/09/18 06:09:29;;;;;;;10.95;6.30;;;17.80;99.90;;;;;;5051608;28;20127;-83
2023/09/18 06:11:55;;;;;;;11.07;6.57;;;17.80;99.90;;;;;;5053872;28;20079;-83
2023/09/18 06:14:20;;;;;;;10.32;6.82;;;17.90;99.90;;;;;;5050251;28;20048;-84
2023/09/18 06:16:46;;;;;;;13.32;7.60;;;17.90;99.90;;;;;;5033546;28;20045;-84
2023/09/18 06:19:12;;;;;;;10.15;6.75;;;18.00;99.90;;;;;;5051057;28;20052;-83
2023/09/18 06:21:37;;;;;;;8.63;6.65;;;18.00;99.90;;;;;;5048435;28;20582;-82
2023/09/18 06:24:03;;;;;;;9.73;6.15;;;18.00;99.90;;;;;;5052957;28;20032;-82
2023/09/18 06:26:29;;;;;;;8.82;6.10;;;18.10;99.90;;;;;;5048464;28;20036;-82
2023/09/18 06:28:54;;;;;;;8.23;5.97;;;18.10;99.90;;;;;;5051596;28;20080;-82
2023/09/18 06:31:20;;;;;;;9.88;5.75;;;18.20;99.90;;;;;;5050544;28;20473;-81
2023/09/18 06:33:46;;;;;;;7.85;6.00;;;18.20;99.90;;;;;;5035990;28;20049;-81
2023/09/18 06:36:13;;;;;;;9.02;6.28;;;18.30;99.90;;;;;;5063965;28;20060;-81
2023/09/18 06:38:38;;;;;;;8.70;5.53;;;18.20;99.90;;;;;;5049677;28;20051;-81
2023/09/18 06:41:04;;;;;;;9.90;5.95;;;18.20;99.90;;;;;;5026542;28;20049;-80
2023/09/18 06:43:30;;;;;;;9.38;6.18;;;18.30;99.90;;;;;;5043406;28;20356;-80
2023/09/18 06:45:57;;;;;;;10.50;5.45;;;18.30;99.90;;;;;;5045853;28;20040;-80
2023/09/18 06:48:24;;;;;;;9.38;6.72;;;18.30;99.90;;;;;;5032948;28;20072;-81
2023/09/18 06:50:49;;;;;;;12.82;6.20;;;18.40;99.90;;;;;;5044058;28;20072;-82
2023/09/18 06:53:16;;;;;;;8.88;6.05;;;18.30;99.90;;;;;;5031499;28;20490;-82
2023/09/18 06:55:41;;;;;;;11.70;7.57;;;18.40;99.90;;;;;;5047555;28;20097;-79
2023/09/18 06:58:07;;;;;;;11.65;6.25;;;18.40;99.90;;;;;;5046617;28;20040;-80
2023/09/18 07:00:33;;;;;;;9.52;6.47;;;18.30;99.90;;;;;;5044728;28;20040;-81
2023/09/18 07:02:58;;;;;;;9.55;6.30;;;18.40;99.90;;;;;;5029939;28;20043;-81
2023/09/18 07:05:24;;;;;;;10.10;7.40;;;18.30;99.90;;;;;;5023997;28;20032;-80
2023/09/18 07:07:50;;;;;;;12.55;7.40;;;18.30;99.90;;;;;;5049655;28;20040;-81
2023/09/18 07:10:15;;;;;;;15.50;8.52;;;18.20;99.90;;;;;;5045489;28;20387;-79
2023/09/18 07:12:41;;;;;;;14.85;9.30;;;18.10;99.90;;;;;;5028445;28;20481;-80
2023/09/18 07:15:07;;;;;;;17.13;9.15;;;18.10;99.90;;;;;;5040740;28;20048;-78
2023/09/18 07:17:34;;;;;;;21.45;10.00;;;18.10;99.90;;;;;;5037627;28;20087;-78
2023/09/18 07:20:00;;;;;;;15.57;10.25;;;18.10;99.90;;;;;;5044608;28;20053;-80
2023/09/18 07:22:26;;;;;;;21.35;10.38;;;17.90;99.90;;;;;;5030609;28;20037;-80
2023/09/18 07:24:52;;;;;;;17.20;9.50;;;18.10;99.90;;;;;;5043593;28;20140;-80
2023/09/18 07:27:17;;;;;;;8.82;6.05;;;18.00;99.90;;;;;;5043851;28;20502;-78
2023/09/18 07:29:43;;;;;;;9.10;5.55;;;18.10;99.90;;;;;;5059285;28;20040;-78
2023/09/18 07:32:09;;;;;;;9.10;5.90;;;18.00;99.90;;;;;;5058910;28;20755;-78
2023/09/18 07:34:35;;;;;;;8.00;5.93;;;18.00;99.90;;;;;;5049979;28;20044;-78
2023/09/18 07:37:01;;;;;;;10.18;6.38;;;17.90;99.90;;;;;;5049167;28;20048;-78
2023/09/18 07:39:26;;;;;;;13.50;6.60;;;18.00;99.90;;;;;;5049705;28;20048;-78
2023/09/18 07:41:52;;;;;;;11.77;7.15;;;18.10;99.90;;;;;;5038880;28;20048;-77
2023/09/18 07:44:21;;;;;;;10.13;7.32;;;18.00;99.90;;;;;;5041636;28;20051;-77
2023/09/18 07:46:47;;;;;;;17.52;10.43;;;18.10;99.90;;;;;;5036889;28;20050;-78
2023/09/18 07:49:14;;;;;;;17.27;9.93;;;18.20;99.90;;;;;;5035850;28;20036;-79
2023/09/18 07:51:39;;;;;;;14.35;8.95;;;18.20;99.90;;;;;;5039957;28;20036;-79
2023/09/18 07:54:07;;;;;;;14.18;8.65;;;18.30;99.90;;;;;;5028456;28;20044;-80
2023/09/18 07:56:34;;;;;;;15.90;8.70;;;18.40;99.90;;;;;;5038553;28;20788;-80
2023/09/18 07:59:00;;;;;;;11.57;8.20;;;18.50;99.90;;;;;;5045262;28;20047;-80
2023/09/18 08:01:26;;;;;;;14.07;9.77;;;18.50;99.90;;;;;;5026466;28;20422;-79
2023/09/18 08:03:51;;;;;;;17.98;9.68;;;18.60;99.90;;;;;;5027496;28;20041;-79
2023/09/18 08:06:19;;;;;;;14.68;8.60;;;18.60;99.90;;;;;;5024098;28;20041;-79
2023/09/18 08:08:45;;;;;;;12.98;8.73;;;18.50;99.90;;;;;;5040308;28;20487;-79
2023/09/18 08:11:10;;;;;;;10.27;7.53;;;18.60;99.90;;;;;;5044370;28;20052;-79
2023/09/18 08:13:36;;;;;;;11.98;7.93;;;18.50;99.90;;;;;;5048333;28;20045;-80
2023/09/18 08:16:05;;;;;;;11.93;8.18;;;18.40;99.90;;;;;;5049709;28;20044;-79
2023/09/18 08:18:31;;;;;;;18.17;7.93;;;18.50;99.90;;;;;;5048603;28;20048;-80
2023/09/18 08:20:58;;;;;;;12.02;6.95;;;18.50;99.90;;;;;;5048673;28;20462;-79
2023/09/18 08:23:24;;;;;;;9.70;6.90;;;18.50;99.90;;;;;;5048690;28;20082;-80
2023/09/18 08:25:51;;;;;;;9.75;7.05;;;18.50;99.90;;;;;;5036881;28;20049;-78
2023/09/18 08:28:17;;;;;;;10.93;7.88;;;18.50;99.90;;;;;;5047417;28;20051;-78
2023/09/18 08:30:47;;;;;;;10.55;7.82;;;18.50;99.90;;;;;;5048419;28;20724;-79
2023/09/18 08:33:13;;;;;;;12.30;7.95;;;18.50;99.90;;;;;;5028646;28;20401;-80
2023/09/18 08:35:39;;;;;;;13.20;8.60;;;18.40;99.90;;;;;;5049134;28;20048;-80
2023/09/18 08:38:05;;;;;;;11.48;7.95;;;18.50;99.90;;;;;;5048420;28;20058;-79
2023/09/18 08:40:32;;;;;;;12.65;8.65;;;18.50;99.90;;;;;;5048534;28;20048;-79
2023/09/18 08:43:03;;;;;;;14.00;8.75;;;18.60;99.90;;;;;;5048701;28;20048;-79
2023/09/18 08:45:47;;;;;;;14.88;8.15;;;18.60;99.90;;;;;;5048137;28;20071;-79
2023/09/18 08:48:13;;;;;;;12.13;8.15;;;18.70;99.90;;;;;;5048082;28;20041;-79
2023/09/18 08:50:40;;;;;;;14.85;9.02;;;18.90;99.90;;;;;;5019612;28;20082;-80
2023/09/18 08:53:06;;;;;;;16.48;9.02;;;19.10;99.90;;;;;;5048177;28;20040;-80
2023/09/18 08:55:33;;;;;;;13.90;9.00;;;19.10;99.90;;;;;;5042476;28;20450;-79
2023/09/18 08:57:59;;;;;;;15.20;9.68;;;19.10;99.90;;;;;;5048535;28;20072;-80
2023/09/18 09:00:26;;;;;;;13.07;8.15;;;19.10;99.90;;;;;;5048959;28;20053;-80
2023/09/18 09:02:54;;;;;;;17.10;9.68;;;18.90;99.90;;;;;;5048263;28;20049;-79
2023/09/18 09:05:23;;;;;;;13.38;9.02;;;18.90;99.90;;;;;;5036516;28;20043;-79
2023/09/18 09:07:50;;;;;;;13.98;9.43;;;18.90;99.90;;;;;;5031135;28;20032;-79
2023/09/18 09:10:16;;;;;;;18.55;9.95;;;18.90;99.90;;;;;;5044375;28;20048;-80
2023/09/18 09:12:57;;;;;;;15.80;10.68;;;18.80;99.90;;;;;;5048300;28;20048;-80
2023/09/18 09:15:25;;;;;;;17.75;11.00;;;18.90;99.90;;;;;;5047849;28;20456;-80
2023/09/18 09:18:00;;;;;;;15.68;10.45;;;18.90;99.90;;;;;;5027206;28;20071;-80
2023/09/18 09:20:26;;;;;;;18.67;10.77;;;18.90;99.90;;;;;;5045901;28;20094;-80
2023/09/18 09:22:53;;;;;;;16.67;10.95;;;18.90;99.90;;;;;;5039598;28;20040;-80
2023/09/18 09:25:22;;;;;;;19.20;11.18;;;19.00;99.90;;;;;;5027279;28;20079;-80
2023/09/18 09:27:47;;;;;;;18.10;10.95;;;19.00;99.90;;;;;;5047919;28;20547;-80
2023/09/18 09:30:24;;;;;;;16.55;11.07;;;19.00;99.90;;;;;;5048282;28;20114;-80
2023/09/18 09:32:52;;;;;;;18.65;11.27;;;19.10;99.90;;;;;;5045454;28;20048;-80
2023/09/18 09:35:21;;;;;;;24.05;11.85;;;19.30;99.90;;;;;;5048445;28;20101;-80
2023/09/18 09:37:50;;;;;;;24.77;12.73;;;19.40;99.90;;;;;;5027775;28;20045;-80
2023/09/18 09:40:16;;;;;;;17.98;12.18;;;19.50;99.90;;;;;;5051445;28;20060;-80
2023/09/18 09:42:42;;;;;;;18.38;11.65;;;19.70;99.90;;;;;;5046970;28;20064;-80
2023/09/18 09:45:12;;;;;;;17.70;11.82;;;19.80;99.90;;;;;;5050831;28;20040;-80
2023/09/18 09:47:39;;;;;;;16.55;11.93;;;19.80;99.90;;;;;;5050716;28;20032;-80
2023/09/18 09:50:10;;;;;;;16.27;11.55;;;19.90;99.90;;;;;;5051465;28;20042;-80
2023/09/18 09:52:40;;;;;;;16.90;11.60;;;20.00;99.90;;;;;;5051053;28;20036;-80
2023/09/18 09:55:28;;;;;;;19.52;11.50;;;20.30;99.90;;;;;;5051465;28;20175;-80
2023/09/18 09:57:59;;;;;;;16.33;10.45;;;20.70;99.90;;;;;;5041220;28;20054;-80
2023/09/18 10:00:42;;;;;;;20.15;11.13;;;20.70;99.90;;;;;;5032706;28;20656;-81
2023/09/18 10:03:12;;;;;;;14.18;10.32;;;20.60;99.90;;;;;;5047133;28;20045;-80
2023/09/18 10:05:41;;;;;;;14.98;10.85;;;20.60;99.90;;;;;;5049870;28;20119;-80
2023/09/18 10:08:14;;;;;;;15.18;10.50;;;20.70;99.90;;;;;;5050624;28;20058;-81
2023/09/18 10:10:52;;;;;;;14.45;10.05;;;20.90;99.90;;;;;;5044779;28;20072;-81
2023/09/18 10:13:22;;;;;;;15.77;9.77;;;20.80;99.90;;;;;;5050456;28;20053;-80
2023/09/18 10:15:50;;;;;;;15.70;9.80;;;20.60;99.90;;;;;;5046881;28;20123;-80
2023/09/18 10:19:08;;;;;;;14.32;9.52;;;20.60;99.90;;;;;;5033789;28;20054;-81
2023/09/18 10:21:48;;;;;;;14.30;9.55;;;20.60;99.90;;;;;;5055447;28;21915;-81
2023/09/18 10:24:16;;;;;;;14.85;9.13;;;20.80;99.90;;;;;;5046522;28;20101;-81
2023/09/18 10:26:58;;;;;;;14.65;8.85;;;20.80;99.90;;;;;;5051448;28;20509;-80
2023/09/18 10:29:25;;;;;;;12.23;8.93;;;20.80;99.90;;;;;;5045215;28;20068;-81
2023/09/18 10:31:55;;;;;;;11.13;8.50;;;21.00;99.90;;;;;;5047984;28;20083;-79
2023/09/18 10:34:23;;;;;;;10.52;7.68;;;21.00;99.90;;;;;;5025026;28;20484;-78
2023/09/18 10:36:51;;;;;;;13.40;7.88;;;20.90;99.90;;;;;;5048556;28;20040;-79
2023/09/18 10:39:23;;;;;;;11.75;7.32;;;21.10;99.90;;;;;;5042478;28;20609;-79
2023/09/18 10:41:52;;;;;;;11.25;7.13;;;21.50;99.90;;;;;;5038709;28;20120;-78
2023/09/18 10:44:19;;;;;;;9.20;6.05;;;21.60;99.90;;;;;;5030361;28;20040;-79
2023/09/18 10:46:51;;;;;;;8.32;6.40;;;21.90;99.90;;;;;;5047342;28;20052;-78
2023/09/18 10:49:17;;;;;;;10.40;5.70;;;21.80;99.90;;;;;;5036201;28;20041;-78
2023/09/18 10:51:44;;;;;;;8.13;5.97;;;22.40;99.90;;;;;;5049213;28;20123;-79
2023/09/18 10:54:10;;;;;;;8.15;5.43;;;22.60;99.90;;;;;;5052363;28;20075;-78
2023/09/18 10:56:36;;;;;;;8.52;5.93;;;22.60;99.90;;;;;;5048817;28;20460;-79
2023/09/18 10:59:05;;;;;;;7.85;5.07;;;23.10;99.90;;;;;;5039353;28;20063;-79
2023/09/18 11:01:31;;;;;;;4.70;4.20;;;24.30;99.90;;;;;;5043129;28;20065;-81
2023/09/18 11:04:02;;;;;;;4.78;4.00;;;24.80;99.90;;;;;;5037426;28;20673;-81
2023/09/18 11:06:28;;;;;;;4.78;4.22;;;24.50;99.90;;;;;;5045378;28;20098;-78
2023/09/18 11:09:04;;;;;;;5.97;4.35;;;23.90;99.90;;;;;;5042981;28;20813;-81
2023/09/18 11:11:32;;;;;;;4.07;3.42;;;23.50;99.90;;;;;;5050089;28;20037;-80
2023/09/18 11:13:59;;;;;;;5.30;4.03;;;23.20;99.90;;;;;;5066825;28;20061;-81
2023/09/18 11:16:28;;;;;;;6.60;3.65;;;23.30;99.90;;;;;;5054348;28;20098;-81
2023/09/18 11:19:05;;;;;;;6.72;3.33;;;23.30;99.90;;;;;;5039243;28;20403;-81
2023/09/18 11:21:34;;;;;;;6.05;3.28;;;23.30;99.90;;;;;;5048124;28;20048;-81
2023/09/18 11:24:05;;;;;;;4.35;3.45;;;23.30;99.90;;;;;;5036092;28;20076;-82
2023/09/18 11:26:36;;;;;;;4.07;3.55;;;23.00;69.60;;;;;;5038355;28;20479;-81
2023/09/18 11:29:07;;;;;;;3.70;3.35;;;22.70;94.50;;;;;;5056752;28;20510;-81
2023/09/18 11:31:50;;;;;;;4.10;3.15;;;22.50;93.00;;;;;;5026644;28;20533;-81
2023/09/18 11:34:31;;;;;;;5.15;3.40;;;22.50;99.00;;;;;;5049935;28;20131;-81
2023/09/18 11:36:58;;;;;;;4.07;3.10;;;23.70;99.90;;;;;;5046723;28;20053;-81
2023/09/18 11:39:41;;;;;;;3.38;3.08;;;24.80;99.90;;;;;;5050086;28;20048;-81
2023/09/18 11:42:22;;;;;;;3.58;2.58;;;25.90;1.00;;;;;;5044828;28;20049;-81
2023/09/18 11:44:49;;;;;;;3.80;3.13;;;26.50;1.00;;;;;;5042322;28;20180;-81
2023/09/18 11:47:21;;;;;;;4.45;2.67;;;27.10;1.00;;;;;;5061913;28;20418;-81
2023/09/18 11:50:00;;;;;;;5.80;2.92;;;27.30;45.00;;;;;;5042526;28;20047;-81
2023/09/18 11:52:35;;;;;;;3.70;2.65;;;27.40;99.90;;;;;;5048530;28;20095;-81
2023/09/18 11:55:03;;;;;;;;;;;26.80;99.90;;;;;;5030769;28;20058;-81
2023/09/18 11:57:35;;;;;;;3.70;3.05;;;25.30;99.90;;;;;;5046285;28;19916;-81
2023/09/18 12:00:11;;;;;;;7.63;3.67;;;23.90;99.90;;;;;;5034883;28;20039;-80
2023/09/18 12:02:40;;;;;;;6.68;5.05;;;22.50;1.00;;;;;;5052696;28;20048;-79
2023/09/18 12:05:17;;;;;;;4.22;3.83;;;21.30;1.00;;;;;;5044053;28;20459;-79
2023/09/18 12:07:45;;;;;;;6.35;4.35;;;20.50;99.90;;;;;;5049443;28;20029;-79
2023/09/18 12:10:15;;;;;;;5.03;4.60;;;20.00;99.90;;;;;;5031677;28;20051;-80
2023/09/18 12:12:43;;;;;;;5.32;4.82;;;19.70;99.90;;;;;;5053280;28;20053;-80
2023/09/18 12:15:12;;;;;;;4.88;4.38;;;19.60;99.90;;;;;;5036496;28;20066;-80
2023/09/18 12:17:38;;;;;;;7.85;5.78;;;19.70;99.90;;;;;;5046680;28;20059;-79
2023/09/18 12:20:05;;;;;;;7.05;5.45;;;19.90;99.90;;;;;;5046048;28;20029;-80
2023/09/18 12:22:32;;;;;;;6.88;4.80;;;20.60;99.90;;;;;;5016249;28;20048;-79
2023/09/18 12:25:11;;;;;;;6.20;4.70;;;21.40;99.90;;;;;;5034502;28;20388;-80
2023/09/18 12:27:40;;;;;;;4.80;3.58;;;22.60;99.90;;;;;;5048364;28;20163;-81
2023/09/18 12:30:07;;;;;;;4.50;3.17;;;23.20;99.90;;;;;;5046961;28;20130;-80
2023/09/18 12:32:36;;;;;;;3.85;3.00;;;23.60;99.90;;;;;;5038983;28;20486;-80
2023/09/18 12:35:06;;;;;;;5.97;3.30;;;23.70;99.90;;;;;;5050199;28;20725;-80
2023/09/18 12:37:33;;;;;;;5.07;2.80;;;24.00;99.90;;;;;;5032823;28;20582;-80
2023/09/18 12:39:59;;;;;;;3.42;2.45;;;24.60;99.90;;;;;;5046598;28;20118;-80